Terminal Aerodrome Forecast
Issued by NWS

Home | Current Version | Previous Version | Text Only | Print | Product List | Glossary On
Versions: 1 2 3 4 5 6 7 8 9 10 11 12 13 14 15 16 17 18 19 20 21 22 23 24 25 26 27 28 29 30 31 32 33 34 35 36 37 38
000
FTUS41 KRNK 011720
TAFBCB
TAF
KBCB 011720Z 0118/0218 27009KT P6SM BKN045
     FM012000 27007KT P6SM SCT050
     FM020700 24003KT P6SM SCT250
     FM021600 25009KT P6SM BKN045=

USA.gov is the U.S. government's official web portal to all federal, state and local government web resources and services.